Terminal Aerodrome Forecast
Issued by NWS

Home | Current Version | Previous Version | Graphics & Text | Print | Product List | Glossary On
Versions: 1 2 3 4 5 6 7 8 9 10 11 12 13 14 15 16 17 18 19 20 21
183
FTUS43 KTOP 150520
TAFMHK
TAF
KMHK 150520Z 1506/1606 10003KT P6SM OVC040
     FM151000 09004KT 6SM -FZRA BR OVC015
      TEMPO 1514/1518 4SM FZRA BR OVC008
     FM152200 07005KT 3SM BR VCSH OVC008=

USA.gov is the U.S. government's official web portal to all federal, state and local government web resources and services.